Time;durP1;ratioP1;P1;durP2;ratioP2;P2;SDS_P1;SDS_P2;PMS_P1;PMS_P2;Temp;Humidity;BMP_temperature;BMP_pressure;BME280_temperature;BME280_humidity;BME280_pressure;Samples;Min_cycle;Max_cycle;Signal;HPM_P1;HPM_P2
2021/04/03 00:01:49;;;;;;;11.20;5.23;;;6.40;99.90;;;;;;5031630;28;20175;-62
2021/04/03 00:04:14;;;;;;;15.37;5.40;;;6.40;99.90;;;;;;5031789;28;20794;-62
2021/04/03 00:06:40;;;;;;;12.70;5.67;;;6.40;99.90;;;;;;5033517;28;20188;-64
2021/04/03 00:09:06;;;;;;;12.07;5.50;;;6.40;99.90;;;;;;5035494;28;20741;-61
2021/04/03 00:11:31;;;;;;;9.93;4.60;;;6.50;99.90;;;;;;5035227;28;20175;-64
2021/04/03 00:13:57;;;;;;;9.97;5.20;;;6.50;99.90;;;;;;5035842;28;20250;-64
2021/04/03 00:16:22;;;;;;;12.77;5.37;;;6.50;99.90;;;;;;5035408;28;20203;-64
2021/04/03 00:18:48;;;;;;;10.60;4.37;;;6.50;99.90;;;;;;5034953;28;20249;-64
2021/04/03 00:21:14;;;;;;;13.83;5.17;;;6.60;99.90;;;;;;5035073;28;20175;-64
2021/04/03 00:23:39;;;;;;;13.90;5.07;;;6.60;99.90;;;;;;5035705;28;20183;-64
2021/04/03 00:26:05;;;;;;;15.50;5.40;;;6.50;99.90;;;;;;5035242;28;20175;-62
2021/04/03 00:28:31;;;;;;;13.87;4.93;;;6.50;99.90;;;;;;5035669;28;20199;-62
2021/04/03 00:30:57;;;;;;;16.63;5.37;;;6.50;99.90;;;;;;5034775;28;20210;-64
2021/04/03 00:33:22;;;;;;;13.13;4.87;;;6.50;99.90;;;;;;5035412;28;20536;-64
2021/04/03 00:35:48;;;;;;;16.97;5.27;;;6.50;99.90;;;;;;5035144;28;20180;-64
2021/04/03 00:38:14;;;;;;;16.53;5.17;;;6.50;99.90;;;;;;5035130;28;20176;-61
2021/04/03 00:40:47;;;;;;;13.20;5.23;;;6.50;99.90;;;;;;5035049;28;20548;-62
2021/04/03 00:43:19;;;;;;;8.77;4.50;;;6.40;99.90;;;;;;5035040;28;20182;-61
2021/04/03 00:45:46;;;;;;;11.87;4.73;;;6.40;99.90;;;;;;5035164;28;20190;-61
2021/04/03 00:48:12;;;;;;;11.67;4.53;;;6.30;99.90;;;;;;5035207;28;20215;-64
2021/04/03 00:50:47;;;;;;;12.17;4.20;;;6.30;99.90;;;;;;5034698;28;20203;-62
2021/04/03 00:53:15;;;;;;;14.83;4.63;;;6.20;99.90;;;;;;5034942;28;20643;-64
2021/04/03 00:55:41;;;;;;;14.23;5.17;;;6.00;99.90;;;;;;5033724;28;20171;-64
2021/04/03 00:58:08;;;;;;;15.13;4.60;;;5.90;99.90;;;;;;5034982;28;20254;-62
2021/04/03 01:00:33;;;;;;;11.87;4.10;;;5.80;99.90;;;;;;5034359;28;20640;-62
2021/04/03 01:02:59;;;;;;;13.70;4.37;;;5.70;99.90;;;;;;5034859;28;20258;-62
2021/04/03 01:05:27;;;;;;;14.53;6.23;;;5.60;99.90;;;;;;5033278;28;20687;-62
2021/04/03 01:07:53;;;;;;;19.10;6.50;;;5.50;99.90;;;;;;5035073;28;20233;-62
2021/04/03 01:10:25;;;;;;;16.67;5.37;;;5.40;99.90;;;;;;5034168;28;20219;-64
2021/04/03 01:13:07;;;;;;;13.93;4.63;;;5.30;99.90;;;;;;5034827;28;20242;-62
2021/04/03 01:16:09;;;;;;;18.53;5.57;;;5.20;99.90;;;;;;5034479;28;20230;-62
2021/04/03 01:18:43;;;;;;;18.23;5.13;;;5.10;99.90;;;;;;5032411;28;20209;-62
2021/04/03 01:21:46;;;;;;;13.03;4.90;;;5.00;99.90;;;;;;5034268;28;20268;-62
2021/04/03 01:24:49;;;;;;;18.00;5.67;;;5.00;99.90;;;;;;5034674;28;20233;-62
2021/04/03 01:27:20;;;;;;;20.37;5.10;;;4.80;99.90;;;;;;5015022;28;20255;-62
2021/04/03 01:29:54;;;;;;;20.97;5.40;;;4.70;99.90;;;;;;5014193;28;20200;-62
2021/04/03 01:32:27;;;;;;;17.17;5.17;;;4.60;99.90;;;;;;5014963;28;20167;-62
2021/04/03 01:34:56;;;;;;;10.80;5.83;;;4.60;99.90;;;;;;5034578;28;20246;-62
2021/04/03 01:37:24;;;;;;;15.23;5.40;;;4.50;99.90;;;;;;5034176;28;20208;-62
2021/04/03 01:39:52;;;;;;;16.80;5.47;;;4.50;99.90;;;;;;5014625;28;20670;-62
2021/04/03 01:42:20;;;;;;;14.07;5.40;;;4.50;99.90;;;;;;5014856;28;20291;-62
2021/04/03 01:44:50;;;;;;;16.03;4.40;;;4.50;99.90;;;;;;5033875;28;20187;-62
2021/04/03 01:47:20;;;;;;;15.67;4.70;;;4.50;99.90;;;;;;5034398;28;20237;-62
2021/04/03 01:49:49;;;;;;;16.50;4.77;;;4.60;99.90;;;;;;5033508;28;20214;-62
2021/04/03 01:52:17;;;;;;;10.77;4.53;;;4.70;99.90;;;;;;5032950;28;20270;-62
2021/04/03 01:54:44;;;;;;;18.10;4.93;;;4.70;99.90;;;;;;5033562;28;20214;-62
2021/04/03 01:57:10;;;;;;;15.93;5.23;;;4.80;99.90;;;;;;5034193;28;20195;-62
2021/04/03 01:59:37;;;;;;;14.80;4.80;;;4.90;99.90;;;;;;5033505;28;20203;-62
2021/04/03 02:02:03;;;;;;;14.13;4.93;;;5.00;99.90;;;;;;5033708;28;20207;-62
2021/04/03 02:04:29;;;;;;;12.73;4.40;;;5.10;99.90;;;;;;5033339;28;20254;-62
2021/04/03 02:06:56;;;;;;;8.53;3.63;;;5.20;99.90;;;;;;5035553;28;20199;-66
2021/04/03 02:09:23;;;;;;;17.37;4.70;;;5.30;99.90;;;;;;5038760;28;20251;-68
2021/04/03 02:11:51;;;;;;;12.83;3.97;;;5.40;99.90;;;;;;5040710;28;20191;-64
2021/04/03 02:14:18;;;;;;;14.30;4.30;;;5.50;99.90;;;;;;5040011;28;20176;-66
2021/04/03 02:16:46;;;;;;;17.93;5.17;;;5.60;99.90;;;;;;5039912;28;20721;-67
2021/04/03 02:19:12;;;;;;;9.93;3.87;;;5.70;99.90;;;;;;5040207;28;20199;-66
2021/04/03 02:21:41;;;;;;;9.17;3.67;;;5.70;99.90;;;;;;5038643;28;20594;-66
2021/04/03 02:24:08;;;;;;;8.93;3.10;;;5.80;99.90;;;;;;5039220;28;20179;-68
2021/04/03 02:26:35;;;;;;;10.43;3.43;;;5.70;99.90;;;;;;5039541;28;20258;-66
2021/04/03 02:29:01;;;;;;;9.03;3.63;;;5.70;99.90;;;;;;5038692;28;20195;-66
2021/04/03 02:31:32;;;;;;;7.03;2.97;;;5.70;99.90;;;;;;5039651;28;20222;-68
2021/04/03 02:33:58;;;;;;;8.37;3.30;;;5.70;99.90;;;;;;5037533;28;20183;-65
2021/04/03 02:36:23;;;;;;;10.47;3.70;;;5.60;99.90;;;;;;5039685;28;20225;-67
2021/04/03 02:38:50;;;;;;;8.53;3.10;;;5.70;99.90;;;;;;5039601;28;20244;-68
2021/04/03 02:41:19;;;;;;;9.50;3.43;;;5.70;99.90;;;;;;5038646;28;20172;-67
2021/04/03 02:43:50;;;;;;;14.73;4.33;;;5.80;99.90;;;;;;5040042;28;20584;-66
2021/04/03 02:46:46;;;;;;;9.43;3.60;;;5.80;99.90;;;;;;5039473;28;20546;-64
2021/04/03 02:49:18;;;;;;;9.57;4.17;;;5.80;99.90;;;;;;5038127;28;20704;-66
2021/04/03 02:51:48;;;;;;;10.10;4.30;;;5.80;99.90;;;;;;5038764;28;20186;-66
2021/04/03 02:54:19;;;;;;;14.40;3.93;;;5.80;99.90;;;;;;5039727;28;20218;-65
2021/04/03 02:56:45;;;;;;;12.27;4.13;;;5.80;99.90;;;;;;5038368;28;20182;-68
2021/04/03 02:59:20;;;;;;;12.43;4.83;;;5.80;99.90;;;;;;5038802;28;20379;-65
2021/04/03 03:01:48;;;;;;;13.73;5.00;;;5.80;99.90;;;;;;5037938;28;20536;-67
2021/04/03 03:04:17;;;;;;;12.47;4.33;;;5.80;99.90;;;;;;5037584;28;20644;-66
2021/04/03 03:06:45;;;;;;;10.87;4.43;;;5.80;99.90;;;;;;5038154;28;20172;-65
2021/04/03 03:09:16;;;;;;;12.77;4.23;;;5.90;99.90;;;;;;5045578;22;20233;-68
2021/04/03 03:11:44;;;;;;;11.53;4.40;;;5.90;99.90;;;;;;5038321;28;20175;-69
2021/04/03 03:14:15;;;;;;;10.67;3.63;;;5.90;99.90;;;;;;5038059;28;20213;-67
2021/04/03 03:16:43;;;;;;;15.90;4.87;;;5.90;99.90;;;;;;5036465;28;20194;-68
2021/04/03 03:19:10;;;;;;;8.53;4.07;;;6.00;99.90;;;;;;5037396;28;20183;-66
2021/04/03 03:21:37;;;;;;;15.10;4.87;;;6.00;99.90;;;;;;5036576;28;20183;-69
2021/04/03 03:24:08;;;;;;;14.37;4.17;;;6.00;99.90;;;;;;5038232;28;20179;-66
2021/04/03 03:26:35;;;;;;;14.80;4.13;;;6.00;99.90;;;;;;5037537;28;20497;-69
2021/04/03 03:29:07;;;;;;;14.77;3.67;;;5.90;99.90;;;;;;5037345;28;20183;-67
2021/04/03 03:31:33;;;;;;;14.70;3.87;;;5.90;99.90;;;;;;5037917;28;20251;-67
2021/04/03 03:33:59;;;;;;;19.07;4.00;;;6.00;99.90;;;;;;5037877;28;20601;-68
2021/04/03 03:36:28;;;;;;;14.97;3.50;;;5.90;99.90;;;;;;5038119;28;20167;-67
2021/04/03 03:38:55;;;;;;;7.13;3.60;;;5.90;99.90;;;;;;5037824;28;20179;-64
2021/04/03 03:41:25;;;;;;;17.87;3.70;;;5.90;99.90;;;;;;5035184;28;20171;-66
2021/04/03 03:43:51;;;;;;;9.77;3.93;;;5.90;99.90;;;;;;5037893;28;20175;-65
2021/04/03 03:46:17;;;;;;;13.10;4.00;;;6.00;99.90;;;;;;5036865;28;20202;-67
2021/04/03 03:48:43;;;;;;;12.60;3.30;;;6.00;99.90;;;;;;5037164;28;20607;-66
2021/04/03 03:51:08;;;;;;;13.20;3.40;;;6.00;99.90;;;;;;5037004;28;20754;-67
2021/04/03 03:53:34;;;;;;;17.17;4.23;;;6.10;99.90;;;;;;5037271;28;20175;-69
2021/04/03 03:56:00;;;;;;;11.83;3.40;;;6.00;99.90;;;;;;5036663;28;20529;-64
2021/04/03 03:58:25;;;;;;;12.47;3.63;;;6.10;99.90;;;;;;5031447;28;20636;-64
2021/04/03 04:00:51;;;;;;;13.63;3.27;;;6.00;99.90;;;;;;5031216;28;20206;-62
2021/04/03 04:03:17;;;;;;;8.93;2.83;;;6.10;99.90;;;;;;5031476;28;20180;-62
2021/04/03 04:05:43;;;;;;;15.03;3.90;;;6.00;99.90;;;;;;5031489;28;20221;-62
2021/04/03 04:08:09;;;;;;;11.20;3.50;;;6.10;99.90;;;;;;5031276;28;20645;-62
2021/04/03 04:10:35;;;;;;;13.27;4.60;;;6.00;99.90;;;;;;5030874;28;20211;-62
2021/04/03 04:13:01;;;;;;;9.23;3.23;;;6.10;99.90;;;;;;5031210;28;20551;-62
2021/04/03 04:15:27;;;;;;;13.30;3.57;;;6.10;99.90;;;;;;5029697;28;20183;-62
2021/04/03 04:17:53;;;;;;;14.13;2.93;;;6.10;99.90;;;;;;5031419;28;20164;-62
2021/04/03 04:20:18;;;;;;;15.80;2.97;;;6.10;99.90;;;;;;5030777;28;20298;-62
2021/04/03 04:22:44;;;;;;;14.03;3.30;;;6.00;99.90;;;;;;5031602;28;20529;-61
2021/04/03 04:25:10;;;;;;;9.93;3.30;;;6.00;99.90;;;;;;5031034;28;20187;-62
2021/04/03 04:27:36;;;;;;;16.13;5.40;;;6.10;99.90;;;;;;5031025;28;20179;-62
2021/04/03 04:30:09;;;;;;;11.90;3.13;;;6.10;99.90;;;;;;5030869;28;20688;-62
2021/04/03 04:32:39;;;;;;;11.63;3.30;;;6.10;99.90;;;;;;5031191;28;20246;-62
2021/04/03 04:35:09;;;;;;;11.70;3.53;;;6.00;99.90;;;;;;5030831;28;20206;-62
2021/04/03 04:37:36;;;;;;;10.80;3.30;;;6.00;99.90;;;;;;5031121;28;20221;-62
2021/04/03 04:40:03;;;;;;;15.53;3.43;;;5.90;99.90;;;;;;5030698;28;20211;-62
2021/04/03 04:42:29;;;;;;;15.13;3.23;;;5.90;99.90;;;;;;5030999;28;20245;-62
2021/04/03 04:44:55;;;;;;;20.10;4.60;;;6.00;99.90;;;;;;5031218;28;20649;-62
2021/04/03 04:47:20;;;;;;;10.07;3.27;;;6.00;99.90;;;;;;5030646;28;20176;-62
2021/04/03 04:49:46;;;;;;;12.23;3.20;;;6.00;99.90;;;;;;5030698;28;20265;-62
2021/04/03 04:52:11;;;;;;;15.30;3.87;;;5.90;99.90;;;;;;5032240;28;20164;-62
2021/04/03 04:54:37;;;;;;;10.17;3.40;;;5.90;99.90;;;;;;5034743;28;20172;-62
2021/04/03 04:57:03;;;;;;;13.50;3.70;;;5.80;99.90;;;;;;5034841;28;20184;-62
2021/04/03 04:59:29;;;;;;;12.80;3.53;;;5.80;99.90;;;;;;5034092;28;20203;-62
2021/04/03 05:01:54;;;;;;;10.93;3.60;;;5.80;99.90;;;;;;5034513;28;20175;-62
2021/04/03 05:04:20;;;;;;;9.63;3.20;;;5.90;99.90;;;;;;5034441;28;20231;-62
2021/04/03 05:06:45;;;;;;;13.47;3.00;;;5.90;99.90;;;;;;5034604;28;20183;-62
2021/04/03 05:09:11;;;;;;;13.00;3.70;;;5.80;99.90;;;;;;5032839;28;20206;-62
2021/04/03 05:11:37;;;;;;;14.30;3.43;;;5.80;99.90;;;;;;5033811;28;20184;-62
2021/04/03 05:14:03;;;;;;;12.27;4.10;;;5.80;99.90;;;;;;5034510;28;20541;-62
2021/04/03 05:16:29;;;;;;;11.67;3.00;;;5.80;99.90;;;;;;5034174;28;20190;-62
2021/04/03 05:18:54;;;;;;;15.47;3.10;;;5.80;99.90;;;;;;5033551;28;20168;-62
2021/04/03 05:21:20;;;;;;;15.67;4.10;;;5.90;99.90;;;;;;5033829;28;20501;-62
2021/04/03 05:23:45;;;;;;;10.80;3.10;;;5.90;99.90;;;;;;5034045;28;20172;-62
2021/04/03 05:26:11;;;;;;;17.10;3.60;;;5.90;99.90;;;;;;5033972;28;20636;-62
2021/04/03 05:28:36;;;;;;;10.27;3.90;;;5.90;99.90;;;;;;5034398;28;20210;-62
2021/04/03 05:31:02;;;;;;;22.03;4.17;;;5.90;99.90;;;;;;5033446;28;20215;-62
2021/04/03 05:33:28;;;;;;;11.07;4.17;;;5.90;99.90;;;;;;5033960;28;20183;-63
2021/04/03 05:35:53;;;;;;;16.70;4.20;;;5.90;99.90;;;;;;5033792;28;20617;-63
2021/04/03 05:38:19;;;;;;;12.90;4.37;;;5.90;99.90;;;;;;5034616;28;20183;-63
2021/04/03 05:40:44;;;;;;;16.83;4.23;;;6.00;99.90;;;;;;5033301;28;20227;-62
2021/04/03 05:43:12;;;;;;;10.63;3.33;;;5.90;99.90;;;;;;5033965;28;20266;-63
2021/04/03 05:45:39;;;;;;;13.77;4.63;;;5.90;99.90;;;;;;5033584;28;20215;-62
2021/04/03 05:48:05;;;;;;;15.50;4.57;;;5.90;99.90;;;;;;5014113;28;20246;-63
2021/04/03 05:50:32;;;;;;;13.67;4.30;;;6.00;99.90;;;;;;5013490;28;20208;-62
2021/04/03 05:52:59;;;;;;;13.37;4.20;;;6.10;99.90;;;;;;5032715;28;20270;-62
2021/04/03 05:55:25;;;;;;;14.93;4.33;;;6.20;99.90;;;;;;5033401;28;20171;-62
2021/04/03 05:57:51;;;;;;;16.27;4.70;;;6.30;99.90;;;;;;5033442;28;20175;-62
2021/04/03 06:00:17;;;;;;;11.47;3.97;;;6.30;99.90;;;;;;5033283;28;20202;-62
2021/04/03 06:02:43;;;;;;;9.87;3.30;;;6.40;99.90;;;;;;5033318;28;20206;-63
2021/04/03 06:05:09;;;;;;;12.07;4.03;;;6.40;99.90;;;;;;5032790;28;20180;-63
2021/04/03 06:07:35;;;;;;;9.47;3.50;;;6.40;99.90;;;;;;5033248;28;20226;-62
2021/04/03 06:10:03;;;;;;;16.10;3.73;;;6.40;99.90;;;;;;5031400;28;20257;-63
2021/04/03 06:12:46;;;;;;;16.47;5.37;;;6.40;99.90;;;;;;5033236;28;20176;-63
2021/04/03 06:15:13;;;;;;;14.40;3.83;;;6.40;99.90;;;;;;5033108;28;20187;-62
2021/04/03 06:17:39;;;;;;;10.47;3.83;;;6.50;99.90;;;;;;5033162;28;20178;-63
2021/04/03 06:20:05;;;;;;;12.93;3.93;;;6.60;99.90;;;;;;5032078;28;20196;-63
2021/04/03 06:23:04;;;;;;;14.30;4.73;;;6.70;99.90;;;;;;5033034;28;20553;-62
2021/04/03 06:25:30;;;;;;;18.10;4.87;;;6.90;99.90;;;;;;5022636;28;20219;-63
2021/04/03 06:28:05;;;;;;;13.90;4.27;;;7.10;99.90;;;;;;5023693;28;20180;-63
2021/04/03 06:30:34;;;;;;;17.57;4.10;;;7.30;99.90;;;;;;5032298;28;20282;-63
2021/04/03 06:33:17;;;;;;;16.67;4.33;;;7.40;99.90;;;;;;5032632;28;20175;-62
2021/04/03 06:35:44;;;;;;;17.70;4.33;;;7.60;99.90;;;;;;5032388;28;20183;-62
2021/04/03 06:38:23;;;;;;;19.77;5.30;;;7.80;99.90;;;;;;5032857;28;20179;-62
2021/04/03 06:40:50;;;;;;;13.40;3.90;;;8.00;99.90;;;;;;5032487;28;20344;-63
2021/04/03 06:43:17;;;;;;;9.90;3.80;;;8.10;99.90;;;;;;5032562;28;20195;-62
2021/04/03 06:45:44;;;;;;;18.90;3.77;;;8.10;99.90;;;;;;5032218;28;20214;-62
2021/04/03 06:48:12;;;;;;;12.60;4.43;;;8.10;99.90;;;;;;5032807;28;20231;-62
2021/04/03 06:50:47;;;;;;;13.73;3.93;;;8.10;99.90;;;;;;5031977;28;20210;-62
2021/04/03 06:53:15;;;;;;;19.70;5.47;;;8.20;99.90;;;;;;5032491;28;20171;-62
2021/04/03 06:55:42;;;;;;;10.67;3.43;;;8.30;99.90;;;;;;5032068;28;20540;-62
2021/04/03 06:58:08;;;;;;;12.60;3.27;;;8.30;99.90;;;;;;5032764;28;20621;-62
2021/04/03 07:00:35;;;;;;;13.40;3.83;;;8.10;99.90;;;;;;5029958;28;20633;-62
2021/04/03 07:03:10;;;;;;;17.27;4.33;;;7.90;99.90;;;;;;5032339;28;20218;-62
2021/04/03 07:05:37;;;;;;;11.07;3.63;;;7.70;99.90;;;;;;5031658;28;20612;-62
2021/04/03 07:08:05;;;;;;;13.77;3.83;;;7.70;99.90;;;;;;5032201;28;20255;-62
2021/04/03 07:10:33;;;;;;;17.33;4.10;;;7.70;99.90;;;;;;5031274;28;20718;-62
2021/04/03 07:12:59;;;;;;;19.77;5.07;;;7.80;99.90;;;;;;5032202;28;20537;-62
2021/04/03 07:15:26;;;;;;;16.03;4.00;;;8.00;99.90;;;;;;5030704;28;20176;-62
2021/04/03 07:17:53;;;;;;;14.73;4.37;;;8.30;99.90;;;;;;5032132;28;20183;-62
2021/04/03 07:20:20;;;;;;;14.60;3.80;;;8.60;99.90;;;;;;5030328;28;20206;-62
2021/04/03 07:22:48;;;;;;;23.57;4.87;;;9.00;99.90;;;;;;5031906;28;20172;-62
2021/04/03 07:25:16;;;;;;;18.90;5.23;;;9.40;99.90;;;;;;5031578;28;20167;-62
2021/04/03 07:27:45;;;;;;;13.10;5.13;;;9.70;99.90;;;;;;5031784;28;20211;-62
2021/04/03 07:30:11;;;;;;;11.80;5.30;;;9.60;99.90;;;;;;5031170;28;20571;-62
2021/04/03 07:32:39;;;;;;;12.53;5.43;;;9.50;99.90;;;;;;5031563;28;20171;-62
2021/04/03 07:35:18;;;;;;;17.97;5.00;;;9.50;99.90;;;;;;5031648;28;20604;-63
2021/04/03 07:37:45;;;;;;;12.20;5.07;;;9.40;99.90;;;;;;5031514;28;20179;-63
2021/04/03 07:40:23;;;;;;;13.37;4.50;;;9.40;99.90;;;;;;5030325;28;20195;-63
2021/04/03 07:42:50;;;;;;;16.63;5.80;;;9.50;99.90;;;;;;5031712;28;20179;-63
2021/04/03 07:45:30;;;;;;;18.87;4.60;;;9.80;99.90;;;;;;5031248;28;20186;-62
2021/04/03 07:47:57;;;;;;;18.57;4.77;;;9.80;99.90;;;;;;5031511;28;20175;-63
2021/04/03 07:50:48;;;;;;;11.13;4.03;;;9.60;99.90;;;;;;5030748;28;20223;-63
2021/04/03 07:53:32;;;;;;;13.23;4.50;;;9.70;99.90;;;;;;5031373;28;20171;-63
2021/04/03 07:55:58;;;;;;;16.97;3.47;;;9.80;99.90;;;;;;5012257;28;20168;-63
2021/04/03 07:58:28;;;;;;;15.43;4.27;;;9.70;99.90;;;;;;5031555;28;20171;-63
2021/04/03 08:00:55;;;;;;;18.30;5.63;;;9.50;99.90;;;;;;5031192;28;20191;-63
2021/04/03 08:03:28;;;;;;;18.80;4.67;;;9.70;99.90;;;;;;5031336;28;20790;-63
2021/04/03 08:06:09;;;;;;;16.40;4.60;;;9.60;99.90;;;;;;5031557;28;20254;-63
2021/04/03 08:08:38;;;;;;;11.10;4.20;;;9.70;99.90;;;;;;5011593;28;20172;-63
2021/04/03 08:11:15;;;;;;;14.43;5.13;;;10.00;99.90;;;;;;5011049;28;20220;-63
2021/04/03 08:13:46;;;;;;;11.43;4.40;;;10.60;99.90;;;;;;5011436;28;20179;-63
2021/04/03 08:16:13;;;;;;;14.73;4.40;;;11.10;99.90;;;;;;5011644;28;20276;-63
2021/04/03 08:18:44;;;;;;;14.90;4.10;;;11.60;99.90;;;;;;5030245;28;20172;-63
2021/04/03 08:21:11;;;;;;;14.47;4.80;;;12.30;99.90;;;;;;5030830;28;20198;-63
2021/04/03 08:23:40;;;;;;;13.67;5.00;;;12.40;99.90;;;;;;5030683;28;20253;-63
2021/04/03 08:26:07;;;;;;;16.40;4.77;;;12.30;99.90;;;;;;5031372;28;20240;-63
2021/04/03 08:28:34;;;;;;;11.80;4.77;;;12.00;99.90;;;;;;5034252;28;20185;-63
2021/04/03 08:31:13;;;;;;;11.27;4.77;;;11.90;99.90;;;;;;5034760;28;20568;-63
2021/04/03 08:33:38;;;;;;;11.30;4.00;;;11.80;99.90;;;;;;5034706;28;20245;-63
2021/04/03 08:36:14;;;;;;;13.73;4.87;;;11.80;99.90;;;;;;5034925;28;20184;-63
2021/04/03 08:38:41;;;;;;;12.47;5.23;;;11.80;99.90;;;;;;5035055;28;20163;-63
2021/04/03 08:41:07;;;;;;;14.23;4.97;;;12.20;99.90;;;;;;5034356;28;20286;-63
2021/04/03 08:43:33;;;;;;;15.80;4.73;;;12.70;99.90;;;;;;5034243;28;20324;-63
2021/04/03 08:46:11;;;;;;;16.77;4.73;;;13.10;99.90;;;;;;5034919;28;20187;-63
2021/04/03 08:48:39;;;;;;;12.33;4.43;;;13.30;99.90;;;;;;5034726;28;20258;-63
2021/04/03 08:51:07;;;;;;;18.03;4.80;;;13.50;99.90;;;;;;5034187;28;20255;-63
2021/04/03 08:53:40;;;;;;;17.47;4.83;;;13.30;99.90;;;;;;5034430;28;20176;-63
2021/04/03 08:56:07;;;;;;;19.47;4.07;;;13.50;99.90;;;;;;5034588;28;20213;-63
2021/04/03 08:58:33;;;;;;;14.77;4.63;;;13.90;99.90;;;;;;5034587;28;20695;-63
2021/04/03 09:00:59;;;;;;;11.83;3.70;;;13.90;99.90;;;;;;5034020;28;20207;-63
2021/04/03 09:03:26;;;;;;;11.17;3.40;;;14.10;99.90;;;;;;5034454;28;20183;-63
2021/04/03 09:05:52;;;;;;;13.73;3.70;;;14.00;99.90;;;;;;5034147;28;20566;-63
2021/04/03 09:08:25;;;;;;;13.40;4.03;;;13.50;99.90;;;;;;5034158;28;20215;-63
2021/04/03 09:11:02;;;;;;;19.33;4.40;;;13.40;99.90;;;;;;5034196;28;20691;-63
2021/04/03 09:13:32;;;;;;;12.67;3.97;;;13.50;99.90;;;;;;5034202;28;20173;-63
2021/04/03 09:16:12;;;;;;;14.30;4.13;;;14.00;99.90;;;;;;5033137;28;20175;-63
2021/04/03 09:18:39;;;;;;;15.63;4.53;;;14.80;99.90;;;;;;5033222;28;20168;-63
2021/04/03 09:21:05;;;;;;;12.63;4.63;;;15.10;99.90;;;;;;5033670;28;20199;-63
2021/04/03 09:23:30;;;;;;;10.13;4.10;;;15.10;99.90;;;;;;5033976;28;20229;-63
2021/04/03 09:26:04;;;;;;;13.57;4.60;;;15.10;99.90;;;;;;5034036;28;20661;-63
2021/04/03 09:28:40;;;;;;;18.70;4.97;;;15.20;99.90;;;;;;5034092;28;20554;-63
2021/04/03 09:31:08;;;;;;;11.70;4.37;;;15.40;99.90;;;;;;5033232;28;20207;-63
2021/04/03 09:33:47;;;;;;;13.13;3.50;;;15.50;99.90;;;;;;5033474;28;20175;-63
2021/04/03 09:36:15;;;;;;;9.43;3.80;;;15.30;99.90;;;;;;5033787;28;20383;-63
2021/04/03 09:38:41;;;;;;;11.33;3.70;;;15.20;99.90;;;;;;5033013;28;20696;-63
2021/04/03 09:41:26;;;;;;;11.63;3.93;;;15.50;99.90;;;;;;5033497;28;20199;-63
2021/04/03 09:43:53;;;;;;;15.37;4.37;;;15.70;99.90;;;;;;5033858;28;20716;-63
2021/04/03 09:46:19;;;;;;;15.43;4.10;;;15.60;99.90;;;;;;5033603;28;20180;-63
2021/04/03 09:48:45;;;;;;;16.30;5.80;;;15.60;99.90;;;;;;5033735;28;20195;-63
2021/04/03 09:51:11;;;;;;;13.57;4.33;;;15.30;99.90;;;;;;5033258;28;20204;-63
2021/04/03 09:53:37;;;;;;;11.40;4.27;;;15.30;99.90;;;;;;5033512;28;20180;-63
2021/04/03 09:56:04;;;;;;;15.03;4.60;;;15.90;99.90;;;;;;5033406;28;20180;-63
2021/04/03 09:58:29;;;;;;;15.77;4.13;;;15.90;99.90;;;;;;5033323;28;20167;-63
2021/04/03 10:00:55;;;;;;;14.60;5.03;;;15.80;99.90;;;;;;5033167;28;20192;-63
2021/04/03 10:03:21;;;;;;;14.43;4.93;;;16.00;99.90;;;;;;5032961;28;20179;-63
2021/04/03 10:05:46;;;;;;;11.43;4.83;;;16.10;99.90;;;;;;5033295;28;20175;-63
2021/04/03 10:08:12;;;;;;;12.00;3.90;;;15.80;99.90;;;;;;5033289;28;20529;-63
2021/04/03 10:10:39;;;;;;;14.83;4.20;;;15.50;99.90;;;;;;5032669;28;20211;-63
2021/04/03 10:13:06;;;;;;;13.40;4.63;;;15.60;99.90;;;;;;5033445;28;20254;-63
2021/04/03 10:15:32;;;;;;;14.33;4.53;;;16.00;99.90;;;;;;5032732;28;20179;-63
2021/04/03 10:17:57;;;;;;;12.27;4.63;;;16.50;99.90;;;;;;5033129;28;20175;-63
2021/04/03 10:20:23;;;;;;;13.55;4.43;;;17.10;99.90;;;;;;5032386;28;20680;-64
2021/04/03 10:22:49;;;;;;;11.40;4.30;;;16.90;99.90;;;;;;5033255;28;20241;-63
2021/04/03 10:25:14;;;;;;;11.18;4.32;;;16.80;99.90;;;;;;5032292;28;20183;-64
2021/04/03 10:27:40;;;;;;;14.17;4.67;;;16.50;99.90;;;;;;5028180;28;20195;-64
2021/04/03 10:30:07;;;;;;;12.90;4.20;;;16.40;99.90;;;;;;5032246;28;20215;-63
2021/04/03 10:32:33;;;;;;;10.33;4.57;;;16.50;99.90;;;;;;5031485;28;20298;-63
2021/04/03 10:34:59;;;;;;;15.93;4.60;;;16.00;99.90;;;;;;5032849;28;20712;-63
2021/04/03 10:37:25;;;;;;;8.90;4.70;;;15.80;99.90;;;;;;5032708;28;20632;-63
2021/04/03 10:39:50;;;;;;;10.43;5.27;;;15.60;99.90;;;;;;5032335;28;20272;-63
2021/04/03 10:42:16;;;;;;;13.77;4.70;;;16.00;99.90;;;;;;5032639;28;20184;-63
2021/04/03 10:44:42;;;;;;;14.10;4.70;;;16.60;99.90;;;;;;5032357;28;20172;-64
2021/04/03 10:47:07;;;;;;;12.55;6.18;;;17.20;99.90;;;;;;5032625;28;20206;-63
2021/04/03 10:49:33;;;;;;;11.23;5.20;;;17.20;99.90;;;;;;5031970;28;20215;-63
2021/04/03 10:51:59;;;;;;;17.00;5.13;;;16.60;99.90;;;;;;5032539;28;20183;-64
2021/04/03 10:54:25;;;;;;;20.03;5.53;;;16.30;99.90;;;;;;5032210;28;20175;-63
2021/04/03 10:56:50;;;;;;;17.97;6.93;;;15.80;99.90;;;;;;5032456;28;20197;-64
2021/04/03 10:59:16;;;;;;;12.00;6.07;;;15.50;99.90;;;;;;5032116;28;20270;-63
2021/04/03 11:01:42;;;;;;;15.23;5.40;;;15.80;99.90;;;;;;5031734;28;20172;-64
2021/04/03 11:04:08;;;;;;;11.43;5.23;;;16.20;99.90;;;;;;5032084;28;20167;-64
2021/04/03 11:06:34;;;;;;;13.93;5.60;;;16.40;99.90;;;;;;5032343;28;20171;-63
2021/04/03 11:09:00;;;;;;;11.53;4.97;;;16.30;99.90;;;;;;5032049;28;20169;-63
2021/04/03 11:11:26;;;;;;;14.13;5.23;;;16.30;99.90;;;;;;5031430;28;20211;-63
2021/04/03 11:13:51;;;;;;;11.50;5.40;;;16.30;99.90;;;;;;5031958;28;20305;-63
2021/04/03 11:16:17;;;;;;;10.33;5.90;;;15.80;99.90;;;;;;5031783;28;20184;-63
2021/04/03 11:18:43;;;;;;;15.50;6.37;;;15.60;99.90;;;;;;5031751;28;20252;-63
2021/04/03 11:21:09;;;;;;;12.67;6.50;;;15.80;99.90;;;;;;5031294;28;20217;-64
2021/04/03 11:23:35;;;;;;;13.87;7.37;;;16.00;99.90;;;;;;5031707;28;20176;-63
2021/04/03 11:26:01;;;;;;;11.00;5.97;;;16.80;99.90;;;;;;5031736;28;20665;-63
2021/04/03 11:28:27;;;;;;;11.97;5.70;;;17.30;99.90;;;;;;5031791;28;20568;-64
2021/04/03 11:30:53;;;;;;;15.47;6.87;;;17.10;99.90;;;;;;5031145;28;20207;-63
2021/04/03 11:33:19;;;;;;;11.63;5.23;;;17.00;99.90;;;;;;5032068;28;20168;-63
2021/04/03 11:35:45;;;;;;;13.43;5.93;;;17.10;99.90;;;;;;5031289;28;20641;-63
2021/04/03 11:38:11;;;;;;;11.20;5.03;;;16.80;99.90;;;;;;5031883;28;20179;-63
2021/04/03 11:40:37;;;;;;;12.80;5.73;;;16.60;99.90;;;;;;5030984;28;20694;-63
2021/04/03 11:43:03;;;;;;;18.33;8.60;;;16.30;99.90;;;;;;5031965;28;20610;-62
2021/04/03 11:45:28;;;;;;;11.77;7.63;;;15.90;99.90;;;;;;5031262;28;20218;-64
2021/04/03 11:47:54;;;;;;;15.13;7.30;;;16.10;99.90;;;;;;5032109;28;20199;-64
2021/04/03 11:50:20;;;;;;;14.00;5.90;;;16.60;99.90;;;;;;5032385;28;20207;-64
2021/04/03 11:52:47;;;;;;;15.20;6.43;;;17.30;99.90;;;;;;5031269;28;20180;-63
2021/04/03 11:55:15;;;;;;;16.73;7.63;;;17.20;99.90;;;;;;5031807;28;20203;-63
2021/04/03 11:57:41;;;;;;;14.80;6.50;;;16.50;99.90;;;;;;5031178;28;20234;-63
2021/04/03 12:00:09;;;;;;;11.57;6.23;;;16.00;99.90;;;;;;5030956;28;20233;-63
2021/04/03 12:02:35;;;;;;;13.57;6.53;;;15.60;99.90;;;;;;5030979;28;20228;-63
2021/04/03 12:05:03;;;;;;;11.97;5.77;;;15.80;99.90;;;;;;5031268;28;20202;-64
2021/04/03 12:07:28;;;;;;;10.17;4.60;;;16.70;99.90;;;;;;5031180;28;20192;-64
2021/04/03 12:09:54;;;;;;;9.67;4.83;;;17.00;99.90;;;;;;5022823;28;20612;-64
2021/04/03 12:12:19;;;;;;;14.13;5.60;;;16.90;99.90;;;;;;5011441;28;20169;-64
2021/04/03 12:14:45;;;;;;;12.47;5.83;;;17.20;99.90;;;;;;5025493;28;20631;-63
2021/04/03 12:17:11;;;;;;;9.87;4.90;;;17.70;99.90;;;;;;5031216;28;20168;-63
2021/04/03 12:19:36;;;;;;;13.53;5.60;;;17.70;99.90;;;;;;5029836;28;20231;-63
2021/04/03 12:22:02;;;;;;;14.23;5.30;;;16.80;99.90;;;;;;5031017;28;20176;-63
2021/04/03 12:24:28;;;;;;;10.07;5.77;;;16.00;99.90;;;;;;5030590;28;20190;-63
2021/04/03 12:26:54;;;;;;;14.87;5.83;;;15.60;99.90;;;;;;5031310;28;20183;-63
2021/04/03 12:29:19;;;;;;;11.30;6.50;;;15.90;99.90;;;;;;5030725;28;20206;-63
2021/04/03 12:31:45;;;;;;;13.50;6.27;;;15.80;99.90;;;;;;5030744;28;20171;-63
2021/04/03 12:34:11;;;;;;;9.80;5.50;;;15.40;99.90;;;;;;5030950;28;20176;-64
2021/04/03 12:36:36;;;;;;;13.83;5.90;;;15.60;99.90;;;;;;5031010;28;20548;-63
2021/04/03 12:39:03;;;;;;;10.67;5.83;;;16.20;99.90;;;;;;5030691;28;20187;-63
2021/04/03 12:41:28;;;;;;;10.77;6.20;;;16.80;99.90;;;;;;5030645;28;20660;-63
2021/04/03 12:43:54;;;;;;;12.03;5.83;;;17.00;99.90;;;;;;5030859;28;20267;-63
2021/04/03 12:46:19;;;;;;;12.13;6.97;;;17.40;99.90;;;;;;5032458;28;20175;-63
2021/04/03 12:48:45;;;;;;;12.43;6.43;;;17.70;99.90;;;;;;5031570;28;20189;-63